Time;durP1;ratioP1;P1;durP2;ratioP2;P2;SDS_P1;SDS_P2;PMS_P1;PMS_P2;Temp;Humidity;BMP_temperature;BMP_pressure;BME280_temperature;BME280_humidity;BME280_pressure;Samples;Min_cycle;Max_cycle;Signal;HPM_P1;HPM_P2
2022/04/09 00:00:50;;;;;;;;;;;;;;;15.98;68.51;98688.13;4925973;29;20013;-88
2022/04/09 00:03:16;;;;;;;;;;;;;;;15.93;68.48;98688.03;5016828;23;19923;-86
2022/04/09 00:05:44;;;;;;;;;;;;;;;15.98;68.16;98692.66;4927333;29;19930;-85
2022/04/09 00:08:12;;;;;;;;;;;;;;;15.95;68.38;98672.56;4924110;29;19926;-86
2022/04/09 00:10:37;;;;;;;;;;;;;;;15.97;68.47;98681.16;4907788;29;19926;-89
2022/04/09 00:13:04;;;;;;;;;;;;;;;15.94;68.58;98689.66;4920212;29;19923;-90
2022/04/09 00:15:32;;;;;;;;;;;;;;;15.91;68.50;98675.94;4926545;29;19930;-89
2022/04/09 00:18:00;;;;;;;;;;;;;;;15.87;68.46;98696.22;4910373;29;19919;-90
2022/04/09 00:20:28;;;;;;;;;;;;;;;15.92;68.57;98694.44;4912574;29;20366;-88
2022/04/09 00:22:56;;;;;;;;;;;;;;;15.82;68.70;98696.91;4944003;29;19922;-85
2022/04/09 00:25:24;;;;;;;;;;;;;;;15.86;68.38;98690.06;4944322;29;19923;-89
2022/04/09 00:27:55;;;;;;;;;;;;;;;15.80;68.57;98707.06;4944033;29;19915;-88
2022/04/09 00:30:21;;;;;;;;;;;;;;;15.75;69.08;98698.94;4920301;29;19930;-86
2022/04/09 00:32:49;;;;;;;;;;;;;;;15.84;69.16;98713.50;4912232;29;20422;-88
2022/04/09 00:35:17;;;;;;;;;;;;;;;15.77;68.77;98702.19;4932791;29;19919;-89
2022/04/09 00:37:43;;;;;;;;;;;;;;;15.81;68.69;98703.31;4911451;29;19915;-88
2022/04/09 00:40:18;;;;;;;;;;;;;;;15.72;68.70;98696.75;4927088;29;19930;-89
2022/04/09 00:42:44;;;;;;;;;;;;;;;15.71;68.79;98697.78;5005678;23;19923;-87
2022/04/09 00:45:10;;;;;;;;;;;;;;;15.67;68.93;98694.00;4908865;29;20049;-88
2022/04/09 00:47:36;;;;;;;;;;;;;;;15.85;67.98;98682.25;4910037;29;19919;-89
2022/04/09 00:50:08;;;;;;;;;;;;;;;15.93;67.67;98685.38;4927871;29;19919;-85
2022/04/09 00:52:35;;;;;;;;;;;;;;;15.79;68.25;98669.88;4927449;29;19987;-91
2022/04/09 00:55:03;;;;;;;;;;;;;;;15.72;68.68;98672.69;4928543;29;19941;-90
2022/04/09 00:57:34;;;;;;;;;;;;;;;15.70;68.87;98679.34;4928054;29;19919;-84
2022/04/09 01:00:10;;;;;;;;;;;;;;;15.73;68.77;98673.50;4927773;29;20006;-89
2022/04/09 01:02:39;;;;;;;;;;;;;;;15.72;68.14;98662.00;4929439;29;19922;-89
2022/04/09 01:05:06;;;;;;;;;;;;;;;15.70;67.98;98664.13;4910655;29;20350;-87
2022/04/09 01:07:32;;;;;;;;;;;;;;;15.67;68.14;98663.78;4926641;29;20352;-87
2022/04/09 01:09:57;;;;;;;;;;;;;;;15.70;67.91;98650.78;4909896;29;19970;-84
2022/04/09 01:12:24;;;;;;;;;;;;;;;15.74;67.30;98649.22;4909872;29;19919;-88
2022/04/09 01:14:53;;;;;;;;;;;;;;;15.77;67.19;98661.31;4914047;29;19926;-85
2022/04/09 01:17:18;;;;;;;;;;;;;;;15.77;66.61;98662.13;4915382;29;20385;-86
2022/04/09 01:19:44;;;;;;;;;;;;;;;15.74;66.85;98662.56;5031704;23;19924;-88
2022/04/09 01:22:12;;;;;;;;;;;;;;;15.79;66.79;98676.03;4875634;29;19924;-86
2022/04/09 01:24:38;;;;;;;;;;;;;;;15.69;66.84;98667.84;4878383;29;19919;-88
2022/04/09 01:27:04;;;;;;;;;;;;;;;15.69;66.28;98662.50;4896642;29;19970;-86
2022/04/09 01:29:37;;;;;;;;;;;;;;;15.70;66.36;98652.63;4897315;29;19922;-84
2022/04/09 01:32:03;;;;;;;;;;;;;;;15.68;66.16;98642.19;4896125;29;20390;-84
2022/04/09 01:34:32;;;;;;;;;;;;;;;15.72;65.22;98640.66;4897040;29;19926;-83
2022/04/09 01:37:04;;;;;;;;;;;;;;;15.69;65.40;98651.00;4897571;29;19919;-85
2022/04/09 01:39:32;;;;;;;;;;;;;;;15.77;65.23;98645.28;4893142;29;19919;-86
2022/04/09 01:42:01;;;;;;;;;;;;;;;15.66;65.87;98654.97;4887962;29;19987;-87
2022/04/09 01:44:27;;;;;;;;;;;;;;;15.59;66.06;98656.97;4904749;29;19919;-86
2022/04/09 01:46:53;;;;;;;;;;;;;;;15.59;65.75;98664.16;4889958;29;19919;-88
2022/04/09 01:49:19;;;;;;;;;;;;;;;15.52;66.09;98651.78;4906706;29;20298;-88
2022/04/09 01:51:51;;;;;;;;;;;;;;;15.55;65.80;98650.50;4889565;29;19919;-85
2022/04/09 01:54:17;;;;;;;;;;;;;;;15.55;65.57;98650.50;4888802;29;19955;-87
2022/04/09 01:56:42;;;;;;;;;;;;;;;15.62;64.82;98645.81;4889099;29;19944;-88
2022/04/09 01:59:10;;;;;;;;;;;;;;;15.58;64.86;98649.22;4906002;29;19926;-87
2022/04/09 02:01:36;;;;;;;;;;;;;;;15.52;64.91;98640.28;4889142;29;19919;-89
2022/04/09 02:04:02;;;;;;;;;;;;;;;15.64;64.02;98642.91;4889505;29;19919;-90
2022/04/09 02:06:28;;;;;;;;;;;;;;;15.62;64.01;98643.13;4887353;29;19919;-88
2022/04/09 02:08:54;;;;;;;;;;;;;;;15.60;63.97;98642.59;4888264;29;20036;-88
2022/04/09 02:11:20;;;;;;;;;;;;;;;15.61;63.70;98644.19;4949319;23;19963;-88
2022/04/09 02:13:45;;;;;;;;;;;;;;;15.45;64.71;98653.75;4905155;29;19926;-86
2022/04/09 02:16:11;;;;;;;;;;;;;;;15.38;64.93;98654.94;4923023;29;20033;-84
2022/04/09 02:18:38;;;;;;;;;;;;;;;15.54;64.32;98667.56;4890653;29;19919;-88
2022/04/09 02:21:04;;;;;;;;;;;;;;;15.43;64.67;98668.41;4906819;29;19987;-87
2022/04/09 02:23:30;;;;;;;;;;;;;;;15.24;66.08;98658.97;4908973;29;19950;-89
2022/04/09 02:25:58;;;;;;;;;;;;;;;15.18;67.02;98665.25;4922629;29;19929;-87
2022/04/09 02:28:26;;;;;;;;;;;;;;;15.22;67.61;98658.38;4924350;29;20018;-86
2022/04/09 02:30:52;;;;;;;;;;;;;;;15.13;68.31;98657.94;4906436;29;19914;-87
2022/04/09 02:33:26;;;;;;;;;;;;;;;15.07;68.44;98666.06;4904864;29;19915;-82
2022/04/09 02:35:52;;;;;;;;;;;;;;;15.02;68.44;98656.91;4920470;29;20401;-86
2022/04/09 02:38:17;;;;;;;;;;;;;;;15.02;68.41;98666.78;4922492;29;19923;-87
2022/04/09 02:40:43;;;;;;;;;;;;;;;14.94;68.78;98665.31;4904654;29;20326;-82
2022/04/09 02:43:10;;;;;;;;;;;;;;;15.00;68.36;98669.69;4912356;29;19926;-85
2022/04/09 02:45:35;;;;;;;;;;;;;;;14.98;67.96;98658.44;4907879;29;19919;-88
2022/04/09 02:48:04;;;;;;;;;;;;;;;14.90;68.20;98655.31;4921342;29;20038;-89
2022/04/09 02:50:32;;;;;;;;;;;;;;;14.83;68.90;98657.31;4905301;29;19926;-85
2022/04/09 02:52:58;;;;;;;;;;;;;;;14.85;68.60;98655.22;4904214;29;19918;-85
2022/04/09 02:55:24;;;;;;;;;;;;;;;14.79;68.15;98650.81;4919796;29;19946;-86
2022/04/09 02:57:50;;;;;;;;;;;;;;;14.71;68.22;98649.34;4904161;29;19923;-90
2022/04/09 03:00:18;;;;;;;;;;;;;;;14.82;67.05;98651.16;4905104;29;19919;-87
2022/04/09 03:02:43;;;;;;;;;;;;;;;14.92;65.15;98650.56;4889561;29;19919;-83
2022/04/09 03:05:20;;;;;;;;;;;;;;;14.97;63.50;98658.69;4905083;29;19923;-88
2022/04/09 03:07:46;;;;;;;;;;;;;;;15.16;62.13;98667.31;4920714;29;20006;-87
2022/04/09 03:10:11;;;;;;;;;;;;;;;15.29;61.60;98661.72;4923148;29;19965;-88
2022/04/09 03:12:41;;;;;;;;;;;;;;;15.22;61.76;98655.69;4928880;29;19903;-81
2022/04/09 03:15:10;;;;;;;;;;;;;;;15.25;61.43;98661.38;4932263;29;20043;-82
2022/04/09 03:17:55;;;;;;;;;;;;;;;15.13;62.24;98652.59;4923241;29;19963;-83
2022/04/09 03:20:22;;;;;;;;;;;;;;;15.06;62.77;98657.25;4925333;29;19931;-84
2022/04/09 03:22:48;;;;;;;;;;;;;;;14.98;63.13;98645.09;4927027;29;19934;-88
2022/04/09 03:25:20;;;;;;;;;;;;;;;15.18;61.21;98633.22;4910820;29;20386;-86
2022/04/09 03:27:50;;;;;;;;;;;;;;;15.19;60.61;98640.16;4901767;29;19927;-87
2022/04/09 03:30:15;;;;;;;;;;;;;;;15.17;61.03;98644.94;4935567;29;19922;-90
2022/04/09 03:32:41;;;;;;;;;;;;;;;15.08;61.68;98636.47;4931499;29;19962;-89
2022/04/09 03:35:14;;;;;;;;;;;;;;;15.01;61.97;98636.63;4909218;29;19919;-88
2022/04/09 03:37:42;;;;;;;;;;;;;;;14.91;62.01;98627.63;4897198;29;19958;-86
2022/04/09 03:40:12;;;;;;;;;;;;;;;14.89;62.10;98630.50;4911095;29;19927;-87
2022/04/09 03:42:41;;;;;;;;;;;;;;;14.90;61.86;98621.47;4903067;29;19926;-88
2022/04/09 03:45:06;;;;;;;;;;;;;;;14.84;62.13;98622.41;4911148;29;19971;-87
2022/04/09 03:47:35;;;;;;;;;;;;;;;14.87;61.82;98613.94;4918769;29;19919;-85
2022/04/09 03:50:08;;;;;;;;;;;;;;;14.80;61.98;98615.94;4902573;29;19923;-87
2022/04/09 03:52:38;;;;;;;;;;;;;;;14.78;61.98;98625.22;4934622;29;19919;-89
2022/04/09 03:55:08;;;;;;;;;;;;;;;14.81;61.85;98616.75;4909638;29;19947;-89
2022/04/09 03:57:34;;;;;;;;;;;;;;;14.85;61.70;98609.88;4909202;29;19922;-88
2022/04/09 04:00:00;;;;;;;;;;;;;;;14.91;61.92;98607.06;4905323;29;19915;-86
2022/04/09 04:02:26;;;;;;;;;;;;;;;14.92;61.37;98611.38;4909874;29;19919;-86
2022/04/09 04:04:53;;;;;;;;;;;;;;;14.76;62.18;98612.09;4925927;29;19989;-89
2022/04/09 04:07:23;;;;;;;;;;;;;;;14.65;62.50;98618.25;4893490;29;19919;-87
2022/04/09 04:09:49;;;;;;;;;;;;;;;14.62;62.21;98613.41;4911524;29;19919;-91
2022/04/09 04:12:18;;;;;;;;;;;;;;;14.61;62.52;98621.66;4908389;29;20005;-87
2022/04/09 04:14:44;;;;;;;;;;;;;;;14.66;62.44;98621.75;4893901;29;19923;-88
2022/04/09 04:17:10;;;;;;;;;;;;;;;14.57;63.00;98610.63;4914153;29;19923;-85
2022/04/09 04:19:36;;;;;;;;;;;;;;;14.46;62.87;98603.44;4915055;29;19919;-86
2022/04/09 04:22:03;;;;;;;;;;;;;;;14.40;62.64;98599.88;4930521;29;20286;-87
2022/04/09 04:24:37;;;;;;;;;;;;;;;14.44;62.09;98597.56;4911155;29;19923;-87
2022/04/09 04:27:04;;;;;;;;;;;;;;;14.46;61.75;98609.59;4914106;29;19999;-85
2022/04/09 04:29:30;;;;;;;;;;;;;;;14.35;62.87;98601.63;4918628;29;19923;-86
2022/04/09 04:31:55;;;;;;;;;;;;;;;14.48;63.02;98604.06;4933936;29;19978;-84
2022/04/09 04:34:22;;;;;;;;;;;;;;;14.46;62.62;98620.25;4919558;29;19943;-83
2022/04/09 04:36:47;;;;;;;;;;;;;;;14.52;62.48;98623.84;4915632;29;19922;-88
2022/04/09 04:39:14;;;;;;;;;;;;;;;14.43;62.56;98619.91;4896799;29;19923;-90
2022/04/09 04:41:45;;;;;;;;;;;;;;;14.47;62.47;98619.22;4917417;29;19930;-88
2022/04/09 04:44:10;;;;;;;;;;;;;;;14.38;62.80;98619.81;4937779;29;19915;-83
2022/04/09 04:46:41;;;;;;;;;;;;;;;14.40;62.69;98620.38;4933647;29;19907;-83
2022/04/09 04:49:12;;;;;;;;;;;;;;;14.29;63.26;98619.31;4921000;29;20385;-80
2022/04/09 04:51:42;;;;;;;;;;;;;;;14.37;63.63;98611.00;4919643;29;19926;-82
2022/04/09 04:54:09;;;;;;;;;;;;;;;14.35;62.91;98622.94;4922082;29;19919;-83
2022/04/09 04:56:36;;;;;;;;;;;;;;;14.43;61.59;98620.72;4916921;29;19915;-80
2022/04/09 04:59:02;;;;;;;;;;;;;;;14.49;61.63;98624.31;4933144;29;20025;-84
2022/04/09 05:01:27;;;;;;;;;;;;;;;14.59;61.41;98627.19;4936015;29;20029;-83
2022/04/09 05:04:01;;;;;;;;;;;;;;;14.78;61.44;98633.22;4910151;29;19927;-83
2022/04/09 05:06:30;;;;;;;;;;;;;;;15.19;59.74;98630.31;4918076;29;20273;-82
2022/04/09 05:08:56;;;;;;;;;;;;;;;15.91;57.19;98641.22;4924143;29;19915;-85
2022/04/09 05:11:42;;;;;;;;;;;;;;;16.73;53.73;98647.59;4894958;29;20266;-84
2022/04/09 05:14:13;;;;;;;;;;;;;;;17.35;52.12;98650.75;4901493;29;19974;-83
2022/04/09 05:16:45;;;;;;;;;;;;;;;18.83;46.98;98656.28;4900552;29;19962;-83
2022/04/09 05:19:11;;;;;;;;;;;;;;;20.07;41.95;98645.38;4920122;29;19957;-86
2022/04/09 05:21:40;;;;;;;;;;;;;;;20.53;40.35;98648.88;4901689;29;19927;-86
2022/04/09 05:24:06;;;;;;;;;;;;;;;21.13;38.90;98656.81;4905965;29;20397;-88
2022/04/09 05:26:32;;;;;;;;;;;;;;;20.68;39.05;98667.69;4907588;29;19919;-84
2022/04/09 05:28:57;;;;;;;;;;;;;;;21.58;37.41;98652.25;4903133;29;19969;-86
2022/04/09 05:31:27;;;;;;;;;;;;;;;23.00;35.18;98671.56;4903113;29;19919;-85
2022/04/09 05:33:54;;;;;;;;;;;;;;;22.25;35.57;98675.00;4902250;29;19926;-84
2022/04/09 05:36:20;;;;;;;;;;;;;;;22.85;34.87;98670.94;4902546;29;19915;-85
2022/04/09 05:38:46;;;;;;;;;;;;;;;22.36;35.86;98671.94;4903451;29;19919;-87
2022/04/09 05:41:12;;;;;;;;;;;;;;;20.84;38.76;98668.47;4921610;29;19923;-84
2022/04/09 05:43:39;;;;;;;;;;;;;;;21.51;37.97;98678.72;4924056;29;20027;-84
2022/04/09 05:46:04;;;;;;;;;;;;;;;21.61;37.47;98670.56;4908956;29;20740;-85
2022/04/09 05:48:34;;;;;;;;;;;;;;;22.11;36.55;98670.25;4926823;29;19919;-87
2022/04/09 05:50:59;;;;;;;;;;;;;;;22.06;36.50;98666.78;4920081;29;19951;-86
2022/04/09 05:53:27;;;;;;;;;;;;;;;22.18;36.22;98675.31;4900564;29;19923;-83
2022/04/09 05:55:56;;;;;;;;;;;;;;;21.72;36.78;98682.91;4924103;29;19926;-83
2022/04/09 05:58:24;;;;;;;;;;;;;;;21.74;36.95;98686.16;4900986;29;19924;-84
2022/04/09 06:00:53;;;;;;;;;;;;;;;22.37;36.05;98684.34;4893240;29;19919;-84
2022/04/09 06:03:29;;;;;;;;;;;;;;;22.12;36.21;98698.03;4893958;29;19955;-84
2022/04/09 06:05:55;;;;;;;;;;;;;;;22.33;35.80;98701.41;4900113;29;19962;-79
2022/04/09 06:08:33;;;;;;;;;;;;;;;22.15;36.42;98721.75;4921821;29;19915;-81
2022/04/09 06:11:02;;;;;;;;;;;;;;;22.53;36.22;98715.53;4920597;28;19942;-85
2022/04/09 06:13:28;;;;;;;;;;;;;;;23.11;36.01;98721.72;4932436;29;19955;-83
2022/04/09 06:15:54;;;;;;;;;;;;;;;23.84;33.85;98728.69;4889659;29;19919;-81
2022/04/09 06:18:23;;;;;;;;;;;;;;;26.14;30.24;98738.31;4902703;29;20005;-83
2022/04/09 06:20:49;;;;;;;;;;;;;;;27.57;27.42;98741.72;4899845;29;20405;-82
2022/04/09 06:23:20;;;;;;;;;;;;;;;27.88;27.23;98739.69;4910835;29;20080;-85
2022/04/09 06:25:46;;;;;;;;;;;;;;;28.93;25.36;98744.81;4918058;29;19919;-83
2022/04/09 06:28:14;;;;;;;;;;;;;;;28.66;25.24;98746.00;4885033;29;20074;-84
2022/04/09 06:30:43;;;;;;;;;;;;;;;30.07;23.72;98746.34;4899978;29;20006;-83
2022/04/09 06:33:23;;;;;;;;;;;;;;;30.43;23.53;98744.94;4898845;29;19954;-80
2022/04/09 06:35:49;;;;;;;;;;;;;;;30.60;22.84;98748.31;4898851;29;19919;-81
2022/04/09 06:38:19;;;;;;;;;;;;;;;31.29;21.82;98746.78;4899242;29;20282;-80
2022/04/09 06:40:47;;;;;;;;;;;;;;;30.30;23.01;98735.03;4900061;29;19923;-82
2022/04/09 06:43:16;;;;;;;;;;;;;;;32.25;20.57;98741.22;4884110;29;20014;-80
2022/04/09 06:45:55;;;;;;;;;;;;;;;33.29;19.42;98734.63;4899011;29;20018;-82
2022/04/09 06:48:39;;;;;;;;;;;;;;;33.09;19.60;98741.97;4916390;29;20431;-81
2022/04/09 06:51:23;;;;;;;;;;;;;;;32.39;19.98;98746.28;4912162;29;20034;-82
2022/04/09 06:53:55;;;;;;;;;;;;;;;32.26;19.99;98737.31;4899447;29;19923;-86
2022/04/09 06:56:21;;;;;;;;;;;;;;;34.21;18.20;98750.50;4915325;29;20446;-80
2022/04/09 06:58:48;;;;;;;;;;;;;;;33.01;19.21;98745.66;4899730;29;19965;-82
2022/04/09 07:01:13;;;;;;;;;;;;;;;32.25;19.89;98734.91;4899885;29;19954;-84
2022/04/09 07:03:41;;;;;;;;;;;;;;;31.46;20.65;98738.31;4897909;29;19942;-83
2022/04/09 07:06:06;;;;;;;;;;;;;;;32.69;20.14;98736.59;4916120;29;20378;-83
2022/04/09 07:08:31;;;;;;;;;;;;;;;33.00;19.35;98733.09;4917254;29;19922;-83
2022/04/09 07:10:57;;;;;;;;;;;;;;;35.04;17.83;98740.72;4916925;29;19923;-86
2022/04/09 07:13:22;;;;;;;;;;;;;;;-142.57;100.00;61215.63;4916874;29;19954;-82
2022/04/09 07:15:48;;;;;;;;;;;;;;;-142.57;100.00;61215.63;4915406;29;19911;-82
2022/04/09 07:18:13;;;;;;;;;;;;;;;-142.57;100.00;61215.63;4917061;29;19919;-81
2022/04/09 07:20:40;;;;;;;;;;;;;;;-142.57;100.00;61215.63;4913928;29;19926;-79
2022/04/09 07:23:05;;;;;;;;;;;;;;;-142.57;100.00;61215.63;4899068;29;20405;-83
2022/04/09 07:25:31;;;;;;;;;;;;;;;-142.57;100.00;61215.63;4917190;29;19915;-85
2022/04/09 07:27:56;;;;;;;;;;;;;;;-142.57;100.00;61215.63;4917293;29;19919;-87
2022/04/09 07:30:22;;;;;;;;;;;;;;;-142.57;100.00;61215.63;4919172;29;19923;-85
2022/04/09 07:32:48;;;;;;;;;;;;;;;-142.57;100.00;61215.63;4917853;29;19962;-79
2022/04/09 07:35:14;;;;;;;;;;;;;;;-142.57;100.00;61215.63;4919326;29;20370;-84
2022/04/09 07:37:44;;;;;;;;;;;;;;;-142.57;100.00;61215.63;4918854;29;19919;-84
2022/04/09 07:40:10;;;;;;;;;;;;;;;-142.57;100.00;61215.63;4917105;29;19970;-83
2022/04/09 07:42:36;;;;;;;;;;;;;;;-142.57;100.00;61215.63;4916961;29;19919;-84
2022/04/09 07:45:02;;;;;;;;;;;;;;;-142.57;100.00;61215.63;4917662;29;19919;-85
2022/04/09 07:47:27;;;;;;;;;;;;;;;-142.57;100.00;61215.63;4917260;29;20018;-83
2022/04/09 07:49:54;;;;;;;;;;;;;;;-142.57;100.00;61215.63;4916700;29;20381;-81
2022/04/09 07:52:20;;;;;;;;;;;;;;;-142.57;100.00;61215.63;4917287;29;19915;-83
2022/04/09 07:54:45;;;;;;;;;;;;;;;-142.57;100.00;61215.63;4917589;29;19926;-83
2022/04/09 07:57:11;;;;;;;;;;;;;;;-142.57;100.00;61215.63;4917673;29;19934;-83
2022/04/09 07:59:36;;;;;;;;;;;;;;;-142.57;100.00;61215.63;4918891;29;20939;-80
2022/04/09 08:02:02;;;;;;;;;;;;;;;-142.57;100.00;61215.63;4918829;29;19919;-83
2022/04/09 08:04:27;;;;;;;;;;;;;;;-142.57;100.00;61215.63;4919442;29;19915;-82
2022/04/09 08:06:52;;;;;;;;;;;;;;;-142.57;100.00;61215.63;4918601;29;19923;-83
2022/04/09 08:09:18;;;;;;;;;;;;;;;-142.57;100.00;61215.63;4924639;29;19970;-84
2022/04/09 08:11:43;;;;;;;;;;;;;;;-142.57;100.00;61215.63;4922421;29;20002;-88
2022/04/09 08:14:09;;;;;;;;;;;;;;;-142.57;100.00;61215.63;4924322;29;20342;-86
2022/04/09 08:16:34;;;;;;;;;;;;;;;-142.57;100.00;61215.63;4924381;29;19919;-83
2022/04/09 08:19:01;;;;;;;;;;;;;;;-142.57;100.00;61215.63;4925296;29;19934;-81
2022/04/09 08:21:33;;;;;;;;;;;;;;;-142.57;100.00;61215.63;4918360;29;19923;-81
2022/04/09 08:24:05;;;;;;;;;;;;;;;-142.57;100.00;61215.63;4927416;29;19936;-83
2022/04/09 08:26:43;;;;;;;;;;;;;;;-142.57;100.00;61215.63;4932551;29;19926;-84
2022/04/09 08:29:10;;;;;;;;;;;;;;;-142.57;100.00;61215.63;4932647;29;19926;-84
2022/04/09 08:31:43;;;;;;;;;;;;;;;-142.57;100.00;61215.63;4930298;29;19926;-87
2022/04/09 08:34:09;;;;;;;;;;;;;;;-142.57;100.00;61215.63;4923421;29;19919;-83
2022/04/09 08:36:34;;;;;;;;;;;;;;;-142.57;100.00;61215.63;4902961;29;20009;-83
2022/04/09 08:38:59;;;;;;;;;;;;;;;-142.57;100.00;61215.63;4920315;29;19919;-82
2022/04/09 08:41:25;;;;;;;;;;;;;;;-142.57;100.00;61215.63;4920474;29;19922;-83
2022/04/09 08:43:51;;;;;;;;;;;;;;;-142.57;100.00;61215.63;4921137;29;19926;-87
2022/04/09 08:46:16;;;;;;;;;;;;;;;-142.57;100.00;61215.63;4920886;29;19942;-81
2022/04/09 08:48:46;;;;;;;;;;;;;;;-142.57;100.00;61215.63;4920764;29;20287;-86
2022/04/09 08:51:12;;;;;;;;;;;;;;;-142.57;100.00;61215.63;4921848;29;19915;-83
2022/04/09 08:53:40;;;;;;;;;;;;;;;-142.57;100.00;61215.63;4902584;29;19923;-83
2022/04/09 08:56:06;;;;;;;;;;;;;;;-142.57;100.00;61215.63;4921301;29;19919;-87
2022/04/09 09:02:04;;;;;;;;;;;;;;;-142.57;100.00;61215.63;4940506;29;19931;-86
2022/04/09 09:04:30;;;;;;;;;;;;;;;-142.57;100.00;61215.63;4943337;29;19914;-85
2022/04/09 09:07:17;;;;;;;;;;;;;;;-142.57;100.00;61215.63;4932878;29;20282;-85
2022/04/09 09:09:42;;;;;;;;;;;;;;;-142.57;100.00;61215.63;4922129;29;19923;-83
2022/04/09 09:12:10;;;;;;;;;;;;;;;-142.57;100.00;61215.63;4921333;29;20347;-84
2022/04/09 09:14:49;;;;;;;;;;;;;;;-142.57;100.00;61215.63;4904873;29;19919;-82
2022/04/09 09:17:25;;;;;;;;;;;;;;;-142.57;100.00;61215.63;4902674;29;19910;-88
2022/04/09 09:19:50;;;;;;;;;;;;;;;-142.57;100.00;61215.63;4902760;29;19923;-82
2022/04/09 09:22:16;;;;;;;;;;;;;;;-142.57;100.00;61215.63;4922021;29;19944;-84
2022/04/09 09:24:42;;;;;;;;;;;;;;;-142.57;100.00;61215.63;4920938;29;19922;-87
2022/04/09 09:27:07;;;;;;;;;;;;;;;-142.57;100.00;61215.63;4906811;29;19926;-87
2022/04/09 09:29:35;;;;;;;;;;;;;;;-142.57;100.00;61215.63;4922206;29;19926;-85
2022/04/09 09:32:02;;;;;;;;;;;;;;;-142.57;100.00;61215.63;4921664;29;20013;-82
2022/04/09 09:34:28;;;;;;;;;;;;;;;-142.57;100.00;61215.63;4902544;29;20041;-83
2022/04/09 09:36:54;;;;;;;;;;;;;;;-142.57;100.00;61215.63;4922218;29;19919;-87
2022/04/09 09:39:20;;;;;;;;;;;;;;;-142.57;100.00;61215.63;4920145;29;19923;-82
2022/04/09 09:41:49;;;;;;;;;;;;;;;-142.57;100.00;61215.63;4919161;29;19958;-85
2022/04/09 09:44:15;;;;;;;;;;;;;;;-142.57;100.00;61215.63;4922090;29;19915;-87
2022/04/09 09:46:42;;;;;;;;;;;;;;;-142.57;100.00;61215.63;4924674;29;19923;-84
2022/04/09 09:49:07;;;;;;;;;;;;;;;-142.57;100.00;61215.63;4923035;29;19919;-81
2022/04/09 09:51:33;;;;;;;;;;;;;;;-142.57;100.00;61215.63;4907015;29;19919;-88
2022/04/09 09:54:15;;;;;;;;;;;;;;;-142.57;100.00;61215.63;4907983;29;19923;-84
2022/04/09 09:56:42;;;;;;;;;;;;;;;-142.57;100.00;61215.63;4918576;29;19926;-84
2022/04/09 09:59:12;;;;;;;;;;;;;;;-142.57;100.00;61215.63;4894611;29;19919;-88
2022/04/09 10:01:39;;;;;;;;;;;;;;;-142.57;100.00;61215.63;4905418;29;19955;-87
2022/04/09 10:04:05;;;;;;;;;;;;;;;-142.57;100.00;61215.63;4904116;29;19926;-86
2022/04/09 10:06:31;;;;;;;;;;;;;;;-142.57;100.00;61215.63;4889294;29;19962;-85
2022/04/09 10:08:58;;;;;;;;;;;;;;;-142.57;100.00;61215.63;4905088;29;19979;-84
2022/04/09 10:11:24;;;;;;;;;;;;;;;-142.57;100.00;61215.63;4907719;29;20338;-88
2022/04/09 10:13:51;;;;;;;;;;;;;;;-142.57;100.00;61215.63;4908918;29;19920;-90
2022/04/09 10:16:21;;;;;;;;;;;;;;;-142.57;100.00;61215.63;4869657;29;20339;-84
2022/04/09 10:18:47;;;;;;;;;;;;;;;-142.57;100.00;61215.63;4902102;29;20450;-81
2022/04/09 10:21:13;;;;;;;;;;;;;;;-142.57;100.00;61215.63;4904750;29;19986;-84
2022/04/09 10:23:40;;;;;;;;;;;;;;;-142.57;100.00;61215.63;4903609;29;19923;-87
2022/04/09 10:26:06;;;;;;;;;;;;;;;-142.57;100.00;61215.63;4887165;29;19963;-85
2022/04/09 10:28:33;;;;;;;;;;;;;;;-142.57;100.00;61215.63;4902600;29;19919;-84
2022/04/09 10:30:59;;;;;;;;;;;;;;;-142.57;100.00;61215.63;4882191;29;19970;-83
2022/04/09 10:33:27;;;;;;;;;;;;;;;-142.57;100.00;61215.63;4913793;29;19926;-85
2022/04/09 10:35:52;;;;;;;;;;;;;;;-142.57;100.00;61215.63;4918723;29;20457;-84
2022/04/09 10:38:22;;;;;;;;;;;;;;;-142.57;100.00;61215.63;4920942;29;19951;-81
2022/04/09 10:40:49;;;;;;;;;;;;;;;-142.57;100.00;61215.63;4923820;29;20409;-85
2022/04/09 10:43:24;;;;;;;;;;;;;;;-142.57;100.00;61215.63;4912832;29;19915;-87
2022/04/09 10:46:02;;;;;;;;;;;;;;;-142.57;100.00;61215.63;4921574;29;19926;-82
2022/04/09 10:48:29;;;;;;;;;;;;;;;-142.57;100.00;61215.63;4919394;29;19926;-81
2022/04/09 10:51:04;;;;;;;;;;;;;;;-142.57;100.00;61215.63;4904154;29;19942;-87
2022/04/09 10:53:39;;;;;;;;;;;;;;;-142.57;100.00;61215.63;4921467;29;19919;-86
2022/04/09 10:56:24;;;;;;;;;;;;;;;-142.57;100.00;61215.63;4902670;29;19931;-86
2022/04/09 10:59:02;;;;;;;;;;;;;;;-142.57;100.00;61215.63;4909915;29;19919;-84
2022/04/09 11:01:49;;;;;;;;;;;;;;;-142.57;100.00;61215.63;4914559;29;19958;-81
2022/04/09 11:04:34;;;;;;;;;;;;;;;-142.57;100.00;61215.63;4921140;29;19927;-84
2022/04/09 11:07:12;;;;;;;;;;;;;;;-142.57;100.00;61215.63;4920977;29;20301;-87
2022/04/09 11:09:53;;;;;;;;;;;;;;;-142.57;100.00;61215.63;4920815;29;19923;-84
2022/04/09 11:12:45;;;;;;;;;;;;;;;-142.57;100.00;61215.63;4908753;29;20031;-87
2022/04/09 11:15:11;;;;;;;;;;;;;;;-142.57;100.00;61215.63;4909261;29;19978;-88
2022/04/09 11:17:37;;;;;;;;;;;;;;;-142.57;100.00;61215.63;4925499;29;19953;-90
2022/04/09 11:20:09;;;;;;;;;;;;;;;-142.57;100.00;61215.63;4895469;29;20357;-86
2022/04/09 11:22:35;;;;;;;;;;;;;;;-142.57;100.00;61215.63;4893255;29;19926;-86
2022/04/09 11:25:01;;;;;;;;;;;;;;;-142.57;100.00;61215.63;4917201;29;19923;-87
2022/04/09 11:27:41;;;;;;;;;;;;;;;-142.57;100.00;61215.63;4926285;29;19919;-89
2022/04/09 11:30:08;;;;;;;;;;;;;;;-142.57;100.00;61215.63;4923454;29;20006;-89
2022/04/09 11:32:35;;;;;;;;;;;;;;;-142.57;100.00;61215.63;4918942;29;19962;-88
2022/04/09 11:35:02;;;;;;;;;;;;;;;-142.57;100.00;61215.63;4907578;29;19923;-90
2022/04/09 11:37:32;;;;;;;;;;;;;;;-142.57;100.00;61215.63;4922841;29;19919;-90
2022/04/09 11:40:03;;;;;;;;;;;;;;;-142.57;100.00;61215.63;4921279;29;19923;-89
2022/04/09 11:42:28;;;;;;;;;;;;;;;-142.57;100.00;61215.63;4921382;29;20386;-86
2022/04/09 11:44:54;;;;;;;;;;;;;;;-142.57;100.00;61215.63;4911907;29;19926;-87
2022/04/09 11:47:25;;;;;;;;;;;;;;;-142.57;100.00;61215.63;4927109;29;19925;-90
2022/04/09 11:49:52;;;;;;;;;;;;;;;-142.57;100.00;61215.63;4895996;29;19918;-85
2022/04/09 11:52:49;;;;;;;;;;;;;;;-142.57;100.00;61215.63;4920741;29;19915;-87
2022/04/09 11:55:16;;;;;;;;;;;;;;;-142.57;100.00;61215.63;4927661;29;19919;-86
2022/04/09 11:57:51;;;;;;;;;;;;;;;-142.57;100.00;61215.63;4922793;29;19919;-83
2022/04/09 12:00:17;;;;;;;;;;;;;;;-142.57;100.00;61215.63;4902877;29;19927;-86
2022/04/09 12:02:43;;;;;;;;;;;;;;;-142.57;100.00;61215.63;4920651;29;19971;-83
2022/04/09 12:05:10;;;;;;;;;;;;;;;-142.57;100.00;61215.63;4919786;29;19919;-84
2022/04/09 12:07:45;;;;;;;;;;;;;;;-142.57;100.00;61215.63;4924112;29;19945;-89
2022/04/09 12:10:24;;;;;;;;;;;;;;;-142.57;100.00;61215.63;4919519;29;20468;-87
2022/04/09 12:13:00;;;;;;;;;;;;;;;-142.57;100.00;61215.63;4914843;29;19916;-85
2022/04/09 12:15:32;;;;;;;;;;;;;;;-142.57;100.00;61215.63;4902354;29;19969;-83
2022/04/09 12:18:04;;;;;;;;;;;;;;;-142.57;100.00;61215.63;4917311;29;20370;-85
2022/04/09 12:20:36;;;;;;;;;;;;;;;-142.57;100.00;61215.63;4919417;29;19923;-84
2022/04/09 12:23:05;;;;;;;;;;;;;;;-142.57;100.00;61215.63;4914195;29;20006;-85
2022/04/09 12:25:36;;;;;;;;;;;;;;;-142.57;100.00;61215.63;4918612;29;19930;-82
2022/04/09 12:28:28;;;;;;;;;;;;;;;-142.57;100.00;61215.63;4921437;29;20282;-84
2022/04/09 12:30:56;;;;;;;;;;;;;;;-142.57;100.00;61215.63;4922777;29;20291;-86
2022/04/09 12:33:22;;;;;;;;;;;;;;;-142.57;100.00;61215.63;4902918;29;20014;-85
2022/04/09 12:35:49;;;;;;;;;;;;;;;-142.57;100.00;61215.63;4905486;29;19926;-85
2022/04/09 12:38:34;;;;;;;;;;;;;;;-142.57;100.00;61215.63;4905232;29;20408;-87
2022/04/09 12:41:05;;;;;;;;;;;;;;;-142.57;100.00;61215.63;4921392;29;19973;-85
2022/04/09 12:43:35;;;;;;;;;;;;;;;-142.57;100.00;61215.63;4920640;29;19927;-86